createdAt,value
2022-08-16T00:01:15.495Z,25.45
2022-08-16T00:03:42.855Z,22.92
2022-08-16T00:06:10.261Z,20.70
2022-08-16T00:08:38.104Z,23.30
2022-08-16T00:13:54.021Z,19.05
2022-08-16T00:17:01.606Z,19.02
2022-08-16T00:19:17.987Z,20.98
2022-08-16T00:21:46.587Z,23.08
2022-08-16T00:24:31.186Z,16.27
2022-08-16T00:27:01.919Z,19.35
2022-08-16T00:29:29.829Z,16.17
2022-08-16T00:32:01.612Z,14.68
2022-08-16T00:34:43.601Z,14.98
2022-08-16T00:37:17.025Z,15.55
2022-08-16T00:39:47.828Z,12.15
2022-08-16T00:42:30.797Z,15.82
2022-08-16T00:45:09.690Z,12.07
2022-08-16T00:47:49.548Z,11.35
2022-08-16T00:50:21.082Z,12.93
2022-08-16T00:52:51.036Z,12.43
2022-08-16T00:55:22.320Z,13.52
2022-08-16T00:57:59.903Z,12.73
2022-08-16T01:00:32.234Z,11.57
2022-08-16T01:03:11.686Z,10.57
2022-08-16T01:05:41.688Z,12.63
2022-08-16T01:08:35.363Z,11.05
2022-08-16T01:11:00.006Z,12.90
2022-08-16T01:13:32.571Z,13.10
2022-08-16T01:16:03.080Z,12.75
2022-08-16T01:18:40.739Z,15.85
2022-08-16T01:21:23.005Z,13.55
2022-08-16T01:24:44.556Z,15.82
2022-08-16T01:27:21.942Z,13.82
2022-08-16T01:29:59.490Z,12.68
2022-08-16T01:32:35.964Z,13.63
2022-08-16T01:35:09.185Z,14.27
2022-08-16T01:37:54.204Z,14.82
2022-08-16T01:40:29.164Z,12.20
2022-08-16T01:42:57.068Z,13.90
2022-08-16T01:48:20.108Z,13.65
2022-08-16T01:53:36.762Z,17.83
2022-08-16T01:56:28.131Z,19.08
2022-08-16T01:58:59.167Z,16.02
2022-08-16T02:01:29.271Z,13.75
2022-08-16T02:03:58.353Z,15.55
2022-08-16T02:06:34.520Z,12.73
2022-08-16T02:09:11.936Z,15.10
2022-08-16T02:11:48.633Z,13.73
2022-08-16T02:14:27.273Z,13.75
2022-08-16T02:16:58.614Z,13.65
2022-08-16T02:20:00.159Z,14.30
2022-08-16T02:22:34.438Z,14.05
2022-08-16T02:25:06.581Z,15.45
2022-08-16T02:27:35.652Z,16.15
2022-08-16T02:30:07.989Z,16.45
2022-08-16T02:32:50.324Z,16.58
2022-08-16T02:35:22.922Z,14.50
2022-08-16T02:37:53.495Z,15.23
2022-08-16T02:40:25.729Z,14.13
2022-08-16T02:42:54.609Z,14.80
2022-08-16T02:45:27.781Z,15.48
2022-08-16T02:48:01.724Z,14.95
2022-08-16T02:50:55.331Z,16.80
2022-08-16T02:53:32.492Z,16.08
2022-08-16T02:56:00.485Z,14.15
2022-08-16T02:58:28.409Z,16.00
2022-08-16T03:00:57.713Z,15.93
2022-08-16T03:04:29.628Z,15.43
2022-08-16T03:06:38.883Z,13.70
2022-08-16T03:09:15.112Z,13.82
2022-08-16T03:11:48.164Z,12.18
2022-08-16T03:14:21.350Z,12.38
2022-08-16T03:16:58.566Z,12.98
2022-08-16T03:19:47.098Z,13.32
2022-08-16T03:22:28.779Z,16.23
2022-08-16T03:25:00.813Z,12.98
2022-08-16T03:27:34.254Z,20.65
2022-08-16T03:30:17.286Z,14.98
2022-08-16T03:32:51.638Z,14.63
2022-08-16T03:35:24.459Z,15.35
2022-08-16T03:38:04.376Z,15.65
2022-08-16T03:40:53.405Z,15.70
2022-08-16T03:43:24.338Z,17.55
2022-08-16T03:46:44.383Z,16.40
2022-08-16T03:49:04.184Z,16.83
2022-08-16T03:51:31.562Z,13.30
2022-08-16T03:54:04.188Z,15.52
2022-08-16T03:56:56.714Z,14.15
2022-08-16T03:59:29.418Z,14.20
2022-08-16T04:02:01.233Z,13.27
2022-08-16T04:04:33.344Z,10.93
2022-08-16T04:07:06.966Z,13.23
2022-08-16T04:09:38.676Z,10.52
2022-08-16T04:12:54.377Z,11.98
2022-08-16T04:14:59.917Z,9.82
2022-08-16T04:17:29.904Z,11.25
2022-08-16T04:19:58.478Z,13.25
2022-08-16T04:22:27.957Z,10.80
2022-08-16T04:25:00.161Z,12.52
2022-08-16T04:27:34.573Z,11.35
2022-08-16T04:30:05.209Z,10.68
2022-08-16T04:32:42.477Z,11.43
2022-08-16T04:35:18.641Z,10.35
2022-08-16T04:37:48.695Z,9.68
2022-08-16T04:40:27.360Z,8.43
2022-08-16T04:42:56.643Z,9.35
2022-08-16T04:45:36.357Z,12.38
2022-08-16T04:48:21.709Z,8.27
2022-08-16T04:50:59.310Z,9.02
2022-08-16T04:53:42.519Z,8.70
2022-08-16T04:58:45.951Z,9.27
2022-08-16T05:01:17.787Z,9.68
2022-08-16T05:04:01.131Z,9.75
2022-08-16T05:06:45.008Z,11.70
2022-08-16T05:09:19.275Z,7.57
2022-08-16T05:11:52.976Z,7.28
2022-08-16T05:14:45.475Z,8.32
2022-08-16T05:19:40.959Z,10.25
2022-08-16T05:22:18.116Z,11.32
2022-08-16T05:24:49.899Z,9.23
2022-08-16T05:27:22.713Z,10.05
2022-08-16T05:30:00.931Z,10.27
2022-08-16T05:32:34.129Z,10.82
2022-08-16T05:35:10.914Z,10.05
2022-08-16T05:37:41.979Z,14.75
2022-08-16T05:40:13.577Z,8.55
2022-08-16T05:42:47.827Z,10.32
2022-08-16T05:45:21.466Z,9.10
2022-08-16T05:47:59.558Z,8.55
2022-08-16T05:50:34.865Z,12.20
2022-08-16T05:53:03.626Z,13.20
2022-08-16T05:55:40.467Z,7.50
2022-08-16T05:58:08.608Z,7.22
2022-08-16T06:00:37.223Z,10.65
2022-08-16T06:03:04.555Z,9.10
2022-08-16T06:05:56.727Z,12.63
2022-08-16T06:08:31.509Z,8.73
2022-08-16T06:11:09.971Z,8.13
2022-08-16T06:13:42.140Z,14.87
2022-08-16T06:16:18.116Z,7.88
2022-08-16T06:18:49.223Z,9.52
2022-08-16T06:21:22.509Z,10.80
2022-08-16T06:23:54.110Z,7.25
2022-08-16T06:26:22.703Z,12.75
2022-08-16T06:28:52.477Z,9.25
2022-08-16T06:31:28.466Z,7.35
2022-08-16T06:33:58.926Z,11.27
2022-08-16T06:36:32.298Z,8.05
2022-08-16T06:39:21.376Z,9.73
2022-08-16T06:41:56.404Z,8.27
2022-08-16T06:44:42.357Z,9.20
2022-08-16T06:47:52.423Z,7.53
2022-08-16T06:53:01.010Z,9.18
2022-08-16T06:55:38.324Z,14.23
2022-08-16T06:58:22.907Z,9.45
2022-08-16T07:01:04.743Z,8.77
2022-08-16T07:03:55.687Z,8.10
2022-08-16T07:06:31.770Z,5.50
2022-08-16T07:09:09.797Z,7.60
2022-08-16T07:11:47.496Z,6.30
2022-08-16T07:14:28.491Z,6.75
2022-08-16T07:16:59.661Z,7.70
2022-08-16T07:19:33.479Z,7.78
2022-08-16T07:22:36.539Z,8.15
2022-08-16T07:25:12.241Z,6.70
2022-08-16T07:27:40.576Z,7.05
2022-08-16T07:30:39.814Z,7.35
2022-08-16T07:33:07.045Z,8.57
2022-08-16T07:35:36.766Z,7.40
2022-08-16T07:38:11.650Z,6.03
2022-08-16T07:41:01.261Z,7.72
2022-08-16T07:43:32.274Z,7.10
2022-08-16T07:46:03.367Z,10.98
2022-08-16T07:48:34.317Z,4.60
2022-08-16T07:51:08.873Z,4.35
2022-08-16T07:53:43.290Z,8.65
2022-08-16T07:56:11.598Z,8.48
2022-08-16T07:58:40.616Z,8.32
2022-08-16T08:01:15.265Z,10.05
2022-08-16T08:03:54.072Z,10.48
2022-08-16T08:06:30.191Z,8.75
2022-08-16T08:09:04.517Z,8.70
2022-08-16T08:11:33.542Z,5.38
2022-08-16T08:14:06.619Z,7.20
2022-08-16T08:16:45.418Z,11.18
2022-08-16T08:19:24.599Z,7.70
2022-08-16T08:21:59.392Z,7.95
2022-08-16T08:24:44.311Z,6.30
2022-08-16T08:27:13.162Z,5.07
2022-08-16T08:30:49.775Z,7.63
2022-08-16T08:32:57.028Z,8.45
2022-08-16T08:35:29.935Z,7.60
2022-08-16T08:38:00.182Z,6.65
2022-08-16T08:40:29.761Z,7.82
2022-08-16T08:43:11.832Z,7.35
2022-08-16T08:45:53.287Z,5.95
2022-08-16T08:48:34.664Z,3.92
2022-08-16T08:51:10.029Z,6.18
2022-08-16T08:53:57.539Z,10.73
2022-08-16T08:56:34.927Z,5.32
2022-08-16T08:59:28.107Z,4.68
2022-08-16T09:01:56.995Z,7.32
2022-08-16T09:04:27.130Z,6.50
2022-08-16T09:06:55.984Z,6.88
2022-08-16T09:09:33.811Z,7.55
2022-08-16T09:12:06.816Z,4.28
2022-08-16T09:14:57.144Z,3.50
2022-08-16T09:20:16.687Z,5.95
2022-08-16T09:22:51.409Z,6.40
2022-08-16T09:25:23.598Z,8.23
2022-08-16T09:27:57.626Z,6.07
2022-08-16T09:30:43.251Z,6.57
2022-08-16T09:33:14.512Z,4.40
2022-08-16T09:35:42.465Z,5.43
2022-08-16T09:38:12.908Z,4.65
2022-08-16T09:40:59.132Z,5.82
2022-08-16T09:44:00.530Z,4.40
2022-08-16T09:49:03.695Z,6.00
2022-08-16T09:51:37.199Z,7.20
2022-08-16T09:54:06.304Z,11.32
2022-08-16T09:56:52.395Z,7.32
2022-08-16T09:59:23.565Z,5.65
2022-08-16T10:01:54.688Z,5.70
2022-08-16T10:04:34.260Z,8.75
2022-08-16T10:07:15.290Z,4.95
2022-08-16T10:09:55.150Z,5.78
2022-08-16T10:12:55.776Z,4.35
2022-08-16T10:15:25.417Z,7.05
2022-08-16T10:18:01.106Z,10.07
2022-08-16T10:20:34.790Z,5.50
2022-08-16T10:23:08.592Z,5.72
2022-08-16T10:27:18.442Z,4.97
2022-08-16T10:28:32.548Z,7.10
2022-08-16T10:31:14.727Z,9.27
2022-08-16T10:33:57.193Z,7.85
2022-08-16T10:36:39.148Z,6.30
2022-08-16T10:39:08.570Z,4.03
2022-08-16T10:41:35.885Z,4.63
2022-08-16T10:47:38.816Z,4.50
2022-08-16T10:50:07.453Z,6.18
2022-08-16T10:52:49.608Z,7.50
2022-08-16T10:58:11.856Z,8.05
2022-08-16T11:00:41.048Z,5.80
2022-08-16T11:03:43.254Z,7.32
2022-08-16T11:06:00.052Z,4.93
2022-08-16T11:08:35.165Z,4.47
2022-08-16T11:11:12.979Z,3.17
2022-08-16T11:14:10.580Z,9.40
2022-08-16T11:19:23.296Z,4.38
2022-08-16T11:24:42.364Z,4.20
2022-08-16T11:27:20.381Z,3.58
2022-08-16T11:29:50.044Z,5.43
2022-08-16T11:32:29.807Z,7.22
2022-08-16T11:35:14.369Z,4.97
2022-08-16T11:38:23.416Z,8.07
2022-08-16T11:40:53.171Z,7.90
2022-08-16T11:43:26.502Z,4.88
2022-08-16T11:45:56.795Z,4.72
2022-08-16T11:48:30.038Z,4.55
2022-08-16T11:50:57.714Z,3.67
2022-08-16T11:53:25.193Z,5.18
2022-08-16T11:55:54.862Z,6.28
2022-08-16T11:58:24.749Z,4.25
2022-08-16T12:00:55.212Z,7.05
2022-08-16T12:03:31.608Z,6.85
2022-08-16T12:06:10.650Z,4.78
2022-08-16T12:08:41.580Z,5.70
2022-08-16T12:11:10.891Z,4.85
2022-08-16T12:13:40.243Z,4.57
2022-08-16T12:16:09.255Z,5.95
2022-08-16T12:18:37.880Z,7.40
2022-08-16T12:21:07.281Z,3.88
2022-08-16T12:23:37.899Z,4.25
2022-08-16T12:26:06.267Z,4.78
2022-08-16T12:28:55.065Z,4.40
2022-08-16T12:31:24.967Z,4.30
2022-08-16T12:33:54.200Z,4.53
2022-08-16T12:36:24.442Z,4.72
2022-08-16T12:38:52.983Z,4.47
2022-08-16T12:41:25.450Z,4.40
2022-08-16T12:44:01.006Z,5.38
2022-08-16T12:46:29.292Z,3.58
2022-08-16T12:49:00.237Z,9.52
2022-08-16T12:51:58.926Z,10.65
2022-08-16T12:54:26.809Z,5.07
2022-08-16T12:56:53.963Z,5.47
2022-08-16T12:59:23.559Z,5.38
2022-08-16T13:01:58.176Z,3.30
2022-08-16T13:04:28.060Z,5.55
2022-08-16T13:09:32.872Z,4.78
2022-08-16T13:12:23.521Z,8.90
2022-08-16T13:14:53.801Z,4.50
2022-08-16T13:17:26.329Z,6.28
2022-08-16T13:20:07.575Z,6.60
2022-08-16T13:25:21.454Z,5.50
2022-08-16T13:28:02.461Z,3.72
2022-08-16T13:30:37.198Z,7.97
2022-08-16T13:33:13.315Z,4.43
2022-08-16T13:35:46.220Z,5.18
2022-08-16T13:38:25.810Z,6.32
2022-08-16T13:40:55.959Z,15.70
2022-08-16T13:43:26.404Z,5.50
2022-08-16T13:45:55.905Z,3.75
2022-08-16T13:48:37.145Z,3.33
2022-08-16T13:51:16.639Z,3.75
2022-08-16T13:53:58.113Z,7.10
2022-08-16T13:56:38.141Z,5.57
2022-08-16T13:59:20.476Z,6.57
2022-08-16T14:01:59.812Z,4.03
2022-08-16T14:04:32.378Z,5.30
2022-08-16T14:07:02.386Z,7.18
2022-08-16T14:09:31.969Z,3.85
2022-08-16T14:12:01.064Z,4.25
2022-08-16T14:14:32.403Z,5.25
2022-08-16T14:17:02.547Z,5.43
2022-08-16T14:19:31.171Z,7.00
2022-08-16T14:22:14.344Z,3.20
2022-08-16T14:24:47.050Z,3.15
2022-08-16T14:27:21.277Z,5.30
2022-08-16T14:29:50.888Z,3.03
2022-08-16T14:32:33.602Z,4.05
2022-08-16T14:35:07.270Z,5.75
2022-08-16T14:37:35.760Z,9.20
2022-08-16T14:40:06.039Z,3.88
2022-08-16T14:42:33.711Z,3.10
2022-08-16T14:45:05.658Z,4.90
2022-08-16T14:47:34.784Z,4.63
2022-08-16T14:50:05.765Z,4.18
2022-08-16T14:55:21.727Z,4.15
2022-08-16T14:57:49.683Z,3.97
2022-08-16T15:00:20.125Z,4.68
2022-08-16T15:02:56.464Z,6.45
2022-08-16T15:05:26.176Z,6.27
2022-08-16T15:07:56.571Z,4.75
2022-08-16T15:10:29.227Z,7.38
2022-08-16T15:12:58.557Z,6.40
2022-08-16T15:15:28.320Z,8.77
2022-08-16T15:17:57.044Z,3.88
2022-08-16T15:20:29.271Z,7.82
2022-08-16T15:23:01.995Z,6.65
2022-08-16T15:25:41.819Z,4.93
2022-08-16T15:28:30.720Z,5.25
2022-08-16T15:31:03.395Z,5.22
2022-08-16T15:33:34.564Z,4.80
2022-08-16T15:36:04.558Z,4.45
2022-08-16T15:39:03.765Z,5.55
2022-08-16T15:41:38.377Z,7.10
2022-08-16T15:44:11.879Z,3.60
2022-08-16T15:46:55.543Z,8.02
2022-08-16T15:49:34.357Z,4.32
2022-08-16T15:52:32.191Z,12.07
2022-08-16T15:55:13.073Z,4.40
2022-08-16T15:57:51.546Z,5.10
2022-08-16T16:00:20.782Z,4.30
2022-08-16T16:02:49.448Z,6.05
2022-08-16T16:05:19.489Z,5.70
2022-08-16T16:07:56.205Z,3.28
2022-08-16T16:12:59.757Z,4.78
2022-08-16T16:15:30.363Z,6.55
2022-08-16T16:17:57.869Z,5.72
2022-08-16T16:23:03.498Z,4.22
2022-08-16T16:25:32.383Z,6.10
2022-08-16T16:28:01.413Z,5.72
2022-08-16T16:30:44.279Z,5.00
2022-08-16T16:33:21.063Z,8.40
2022-08-16T16:35:55.229Z,6.25
2022-08-16T16:38:30.740Z,4.65
2022-08-16T16:40:59.944Z,6.35
2022-08-16T16:43:31.903Z,4.63
2022-08-16T16:46:05.869Z,6.95
2022-08-16T16:48:52.594Z,8.98
2022-08-16T16:51:21.509Z,5.28
2022-08-16T16:53:56.258Z,3.17
2022-08-16T16:56:30.301Z,6.75
2022-08-16T16:59:02.184Z,6.03
2022-08-16T17:01:59.995Z,4.78
2022-08-16T17:04:31.291Z,5.45
2022-08-16T17:07:03.586Z,5.07
2022-08-16T17:09:30.912Z,5.03
2022-08-16T17:11:58.959Z,8.38
2022-08-16T17:14:33.180Z,6.18
2022-08-16T17:17:08.377Z,5.80
2022-08-16T17:19:41.242Z,6.63
2022-08-16T17:22:14.556Z,8.90
2022-08-16T17:24:50.982Z,7.43
2022-08-16T17:27:33.191Z,10.25
2022-08-16T17:30:15.956Z,3.40
2022-08-16T17:32:50.695Z,6.28
2022-08-16T17:35:55.443Z,4.97
2022-08-16T17:38:38.530Z,6.88
2022-08-16T17:41:07.947Z,6.93
2022-08-16T17:43:43.813Z,5.32
2022-08-16T17:46:41.340Z,9.70
2022-08-16T17:49:00.823Z,9.50
2022-08-16T17:53:56.556Z,4.25
2022-08-16T17:56:23.915Z,4.30
2022-08-16T17:58:51.126Z,4.75
2022-08-16T18:01:24.117Z,6.03
2022-08-16T18:04:08.915Z,4.07
2022-08-16T18:06:38.059Z,3.70
2022-08-16T18:09:07.009Z,9.18
2022-08-16T18:11:40.841Z,7.47
2022-08-16T18:14:09.758Z,4.28
2022-08-16T18:16:37.019Z,6.60
2022-08-16T18:19:04.263Z,3.63
2022-08-16T18:21:49.752Z,9.73
2022-08-16T18:24:19.124Z,4.60
2022-08-16T18:26:46.681Z,5.78
2022-08-16T18:31:41.436Z,4.38
2022-08-16T18:34:08.638Z,5.43
2022-08-16T18:36:37.196Z,5.28
2022-08-16T18:39:04.708Z,5.32
2022-08-16T18:41:37.103Z,5.97
2022-08-16T18:44:26.473Z,8.48
2022-08-16T18:46:55.402Z,4.13
2022-08-16T18:51:50.921Z,7.35
2022-08-16T18:54:18.787Z,3.33
2022-08-16T18:59:27.392Z,4.90
2022-08-16T19:01:56.947Z,4.13
2022-08-16T19:04:56.197Z,3.92
2022-08-16T19:07:16.971Z,4.50
2022-08-16T19:09:44.509Z,5.07
2022-08-16T19:12:11.847Z,3.25
2022-08-16T19:14:45.512Z,3.17
2022-08-16T19:17:12.994Z,5.20
2022-08-16T19:19:40.280Z,4.47
2022-08-16T19:22:08.365Z,5.88
2022-08-16T19:24:35.758Z,5.60
2022-08-16T19:27:03.062Z,5.05
2022-08-16T19:29:31.262Z,3.53
2022-08-16T19:31:58.541Z,3.22
2022-08-16T19:34:26.611Z,6.78
2022-08-16T19:36:54.280Z,3.50
2022-08-16T19:41:53.443Z,5.43
2022-08-16T19:44:22.461Z,3.85
2022-08-16T19:46:50.188Z,5.72
2022-08-16T19:51:46.418Z,3.55
2022-08-16T19:54:14.100Z,6.47
2022-08-16T19:59:39.907Z,4.20
2022-08-16T20:01:55.548Z,6.32
2022-08-16T20:04:23.828Z,3.15
2022-08-16T20:06:52.534Z,5.30
2022-08-16T20:09:21.538Z,5.72
2022-08-16T20:11:50.790Z,4.63
2022-08-16T20:14:24.434Z,5.88
2022-08-16T20:16:56.151Z,4.00
2022-08-16T20:19:23.879Z,5.75
2022-08-16T20:24:35.570Z,4.63
2022-08-16T20:27:06.294Z,7.10
2022-08-16T20:29:34.025Z,5.97
2022-08-16T20:32:01.779Z,3.40
2022-08-16T20:34:28.995Z,2.85
2022-08-16T20:36:56.327Z,2.40
2022-08-16T20:39:24.184Z,7.50
2022-08-16T20:41:51.718Z,3.65
2022-08-16T20:44:22.682Z,4.53
2022-08-16T20:46:50.245Z,3.65
2022-08-16T20:49:17.405Z,4.30
2022-08-16T20:51:46.642Z,5.75
2022-08-16T20:54:16.614Z,4.88
2022-08-16T20:56:43.791Z,3.60
2022-08-16T20:59:11.101Z,4.53
2022-08-16T21:01:46.850Z,4.63
2022-08-16T21:04:22.434Z,16.08
2022-08-16T21:06:53.577Z,5.78
2022-08-16T21:09:24.933Z,6.20
2022-08-16T21:11:54.158Z,4.63
2022-08-16T21:14:22.075Z,5.28
2022-08-16T21:16:49.566Z,4.07
2022-08-16T21:19:17.120Z,7.53
2022-08-16T21:26:39.277Z,3.15
2022-08-16T21:29:07.728Z,3.55
2022-08-16T21:31:40.726Z,6.10
2022-08-16T21:34:08.779Z,4.22
2022-08-16T21:36:36.621Z,3.25
2022-08-16T21:39:06.267Z,3.45
2022-08-16T21:41:35.856Z,3.75
2022-08-16T21:44:03.293Z,3.50
2022-08-16T21:46:30.491Z,2.92
2022-08-16T21:48:57.655Z,5.47
2022-08-16T21:51:25.037Z,4.03
2022-08-16T21:53:52.211Z,7.43
2022-08-16T21:56:19.596Z,7.05
2022-08-16T21:58:53.176Z,3.90
2022-08-16T22:01:24.088Z,7.03
2022-08-16T22:03:57.952Z,3.70
2022-08-16T22:06:41.648Z,3.50
2022-08-16T22:09:10.588Z,6.78
2022-08-16T22:11:38.787Z,3.28
2022-08-16T22:14:06.332Z,8.23
2022-08-16T22:16:37.614Z,6.68
2022-08-16T22:19:05.803Z,5.35
2022-08-16T22:21:34.362Z,9.20
2022-08-16T22:24:02.586Z,6.25
2022-08-16T22:26:32.563Z,3.90
2022-08-16T22:29:06.276Z,4.18
2022-08-16T22:31:34.630Z,5.43
2022-08-16T22:34:02.447Z,4.72
2022-08-16T22:36:30.641Z,6.85
2022-08-16T22:38:59.551Z,12.02
2022-08-16T22:41:28.222Z,7.40
2022-08-16T22:43:56.055Z,7.88
2022-08-16T22:46:23.623Z,6.43
2022-08-16T22:48:51.137Z,19.67
2022-08-16T22:51:23.368Z,4.30
2022-08-16T22:53:51.146Z,4.88
